Latest Weather Observations for Yamba

IDN60801

Issued at 5:02 pm EDT Monday 18 February 2019 (issued every 10 minutes, with the page automatically refreshed every 10 minutes)

About weather observations | Map of weather stations | Latest weather observations for NSW | Other Formats
Station Details ID: 058012 Name: YAMBA PILOT STATION Lat: -29.43 Lon: 153.36 Height: 27.4 m
Data from the previous 72 hours. | See also: Recent months at Yamba
Date/Time
EDT
Temp
°C
App
Temp
°C
Dew
Point
°C
Rel
Hum
%
Delta-T
°C
Wind Press
QNH
hPa
Press
MSL
hPa
Rain since
9am
mm
Dir  Spd
km/h
Gust
km/h
Spd
kts
Gust
kts
18/05:00pm 27.6 28.3 18.9 59 5.6 E 13 19 7 10 1009.6 1009.5 0.0
18/04:30pm 28.1 29.2 18.8 57 6.0 ESE 11 19 6 10 1009.7 1009.6 0.0
18/04:00pm 28.3 29.2 19.2 57 5.9 ESE 13 20 7 11 1010.0 1009.9 0.0
18/03:30pm 28.6 29.6 19.5 58 5.9 ESE 13 20 7 11 1010.2 1010.1 0.0
18/03:00pm 28.4 29.6 19.9 60 5.6 ESE 13 17 7 9 1010.6 1010.5 0.0
18/02:30pm 28.8 30.0 20.0 59 5.8 ESE 13 17 7 9 1011.0 1010.9 0.0
18/02:00pm 27.9 28.7 19.9 61 5.2 ESE 15 20 8 11 1011.4 1011.3 0.0
18/01:30pm 27.6 28.3 19.7 62 5.1 ESE 15 20 8 11 1011.7 1011.6 0.0
18/01:00pm 27.0 27.7 19.6 64 4.8 ESE 15 20 8 11 1011.9 1011.8 0.0
18/12:30pm 27.7 28.3 19.5 61 5.3 SE 15 19 8 10 1012.2 1012.1 0.0
18/12:00pm 27.9 29.1 19.1 58 5.7 SE 11 15 6 8 1012.6 1012.4 0.0
18/11:30am 27.2 28.4 19.0 61 5.3 SE 11 15 6 8 1012.9 1012.7 0.0
18/11:00am 27.2 28.7 18.8 60 5.4 SE 9 11 5 6 1013.2 1013.0 0.0
18/10:30am 27.3 28.4 18.0 56 5.9 SE 9 11 5 6 1013.3 1013.1 0.0
18/10:00am 26.9 28.3 17.9 57 5.7 SE 7 9 4 5 1013.1 1012.9 0.0
18/09:30am 26.1 27.3 18.2 61 5.0 SE 9 11 5 6 1013.2 1013.0 0.0
18/09:00am 24.8 26.0 18.3 67 4.1 SW 9 11 5 6 1013.2 1013.0 0.0
18/08:30am 23.5 24.9 18.6 74 3.1 SW 9 13 5 7 1013.1 1012.9 0.0
18/08:00am 21.9 24.0 19.3 85 1.7 WSW 7 13 4 7 1013.0 1012.8 0.0
18/07:30am 20.5 22.1 19.2 92 0.8 WSW 9 11 5 6 1012.6 1012.4 0.0
18/07:00am 19.9 21.6 19.4 97 0.3 WSW 9 13 5 7 1012.2 1012.1 0.0
18/06:30am 19.8 21.5 19.3 97 0.3 WSW 9 13 5 7 1012.1 1012.0 0.0
18/06:00am 20.0 21.3 19.2 95 0.5 W 11 13 6 7 1012.1 1012.0 0.0
18/05:30am 20.2 21.6 18.7 91 0.9 WSW 9 13 5 7 1012.0 1011.9 0.0
18/05:00am 20.8 22.3 18.9 89 1.2 WSW 9 11 5 6 1011.9 1011.8 0.0
18/04:30am 21.1 22.7 19.2 89 1.2 SW 9 11 5 6 1012.2 1012.1 0.0
18/04:00am 21.2 22.8 19.1 88 1.3 SW 9 11 5 6 1012.2 1012.1 0.0
18/03:30am 21.3 22.8 18.9 86 1.5 WSW 9 13 5 7 1012.6 1012.4 0.0
18/03:00am 21.4 22.8 18.6 84 1.8 SW 9 11 5 6 1012.8 1012.6 0.0
18/02:30am 21.4 22.8 18.6 84 1.8 WSW 9 13 5 7 1013.0 1012.8 0.0
18/02:00am 22.1 23.8 19.3 84 1.8 WSW 9 11 5 6 1013.2 1013.0 0.0
18/01:30am 23.0 24.8 18.3 75 3.0 WSW 6 7 3 4 1013.5 1013.3 0.0
18/01:00am 24.2 26.2 18.8 72 3.4 E 6 7 3 4 1013.7 1013.5 0.0
18/12:30am 24.1 25.9 18.7 72 3.4 E 7 9 4 5 1013.9 1013.7 0.0
18/12:00am 24.1 25.4 18.5 71 3.5 E 9 11 5 6 1014.1 1013.9 0.0
 
Date/Time
EDT
Temp
°C
App
Temp
°C
Dew
Point
°C
Rel
Hum
%
Delta-T
°C
Wind Press
QNH
hPa
Press
MSL
hPa
Rain since
9am
mm
Dir  Spd
km/h
Gust
km/h
Spd
kts
Gust
kts
17/11:30pm 24.3 25.8 18.9 72 3.4 E 9 13 5 7 1014.3 1014.1 0.0
17/11:00pm 24.2 25.6 18.6 71 3.5 E 9 15 5 8 1014.3 1014.1 0.0
17/10:30pm 24.2 25.4 18.2 69 3.8 E 9 15 5 8 1014.4 1014.2 0.0
17/10:00pm 24.4 25.4 18.6 70 3.7 E 11 19 6 10 1014.2 1014.0 0.0
17/09:30pm 24.5 25.5 18.7 70 3.7 E 11 17 6 9 1014.0 1013.8 0.0
17/09:00pm 24.5 24.9 18.2 68 4.0 E 13 19 7 10 1013.8 1013.6 0.0
17/08:30pm 24.4 24.9 18.3 69 3.8 E 13 19 7 10 1013.5 1013.3 0.0
17/08:00pm 24.6 25.5 19.2 72 3.5 E 13 19 7 10 1013.2 1013.0 0.0
17/07:30pm 24.6 25.4 19.0 71 3.6 ESE 13 17 7 9 1012.9 1012.7 0.0
17/07:00pm 25.0 25.6 18.7 68 4.0 ESE 13 20 7 11 1012.8 1012.6 0.0
17/06:30pm 25.7 26.1 19.1 67 4.2 ESE 15 20 8 11 1012.6 1012.4 0.0
17/06:00pm 26.1 26.1 18.0 61 5.1 ESE 15 24 8 13 1012.2 1012.1 0.0
17/05:30pm 26.6 26.8 17.7 58 5.6 ESE 13 22 7 12 1012.2 1012.1 0.0
17/05:00pm 27.0 27.3 17.8 57 5.8 E 13 20 7 11 1012.3 1012.2 0.0
17/04:30pm 27.4 27.7 17.8 55 6.1 ESE 13 20 7 11 1012.5 1012.3 0.0
17/04:00pm 27.9 28.9 18.6 57 6.0 ESE 11 15 6 8 1012.8 1012.6 0.0
17/03:30pm 28.7 29.9 19.1 56 6.2 ESE 11 15 6 8 1013.1 1012.9 0.0
17/03:00pm 27.4 28.0 18.7 59 5.6 ESE 13 19 7 10 1013.6 1013.4 0.0
17/02:30pm 28.1 28.5 19.1 58 5.8 ESE 15 19 8 10 1013.9 1013.7 0.0
17/02:00pm 28.4 29.1 18.8 56 6.2 SE 13 17 7 9 1014.2 1014.0 0.0
17/01:30pm 28.6 29.2 18.7 55 6.4 SE 13 19 7 10 1014.5 1014.3 0.0
17/01:00pm 27.7 28.2 17.5 53 6.4 SE 11 17 6 9 1014.8 1014.6 0.0
17/12:30pm 28.2 28.4 17.7 53 6.7 SE 13 17 7 9 1015.2 1015.0 0.0
17/12:00pm 27.7 28.0 17.8 54 6.3 SE 13 17 7 9 1015.5 1015.3 0.0
17/11:30am 27.2 26.8 16.2 51 6.8 SE 13 15 7 8 1015.8 1015.6 0.0
17/11:00am 28.0 28.3 17.8 54 6.5 SE 13 19 7 10 1016.0 1015.8 0.0
17/10:30am 27.6 27.7 17.5 54 6.4 SE 13 17 7 9 1016.0 1015.8 0.0
17/10:00am 26.7 26.7 17.2 56 5.9 SSE 13 20 7 11 1015.9 1015.7 0.0
17/09:30am 25.1 25.9 17.3 62 4.9 SSW 9 15 5 8 1015.8 1015.6 0.0
17/09:00am 24.7 26.1 17.9 66 4.3 WSW 7 13 4 7 1015.7 1015.5 0.0
17/08:30am 23.3 24.4 18.0 72 3.3 W 9 13 5 7 1015.5 1015.3 0.0
17/08:00am 21.9 22.9 17.7 77 2.6 WSW 9 17 5 9 1015.5 1015.3 0.0
17/07:30am 20.9 21.9 17.7 82 2.0 WSW 9 15 5 8 1015.2 1015.0 0.0
17/07:00am 20.0 21.0 17.8 87 1.4 WSW 9 13 5 7 1015.0 1014.8 0.0
17/06:30am 19.9 21.0 17.9 88 1.2 WSW 9 13 5 7 1014.8 1014.6 0.0
17/06:00am 19.9 21.0 17.9 88 1.2 WSW 9 15 5 8 1014.6 1014.4 0.0
17/05:30am 19.8 20.8 17.8 88 1.2 WSW 9 13 5 7 1014.4 1014.2 0.0
17/05:00am 19.6 20.6 17.7 89 1.2 WSW 9 13 5 7 1014.5 1014.3 0.0
17/04:30am 19.5 20.5 17.8 90 1.0 WSW 9 13 5 7 1014.7 1014.5 0.0
17/04:00am 19.5 20.5 17.8 90 1.0 WSW 9 13 5 7 1014.7 1014.5 0.0
17/03:30am 19.8 20.1 17.8 88 1.2 WSW 13 15 7 8 1015.0 1014.8 0.0
17/03:00am 21.2 22.5 17.0 77 2.6 SW 6 11 3 6 1015.4 1015.2 0.0
17/02:30am 23.7 24.5 17.2 67 4.0 ESE 9 15 5 8 1015.5 1015.3 0.0
17/02:00am 23.8 23.9 17.5 68 3.9 ESE 13 19 7 10 1015.8 1015.6 0.0
17/01:30am 24.0 24.2 17.7 68 3.9 ESE 13 20 7 11 1016.2 1016.0 0.0
17/01:00am 23.9 23.9 17.2 66 4.1 SE 13 20 7 11 1016.7 1016.5 0.0
17/12:30am 24.2 24.2 18.2 69 3.8 ESE 15 20 8 11 1017.1 1016.9 0.0
17/12:00am 23.9 23.1 16.2 62 4.7 ESE 15 22 8 12 1017.5 1017.3 0.0
 
Date/Time
EDT
Temp
°C
App
Temp
°C
Dew
Point
°C
Rel
Hum
%
Delta-T
°C
Wind Press
QNH
hPa
Press
MSL
hPa
Rain since
9am
mm
Dir  Spd
km/h
Gust
km/h
Spd
kts
Gust
kts
16/11:30pm 24.0 23.5 17.0 65 4.3 ESE 15 20 8 11 1017.5 1017.3 0.0
16/11:00pm 24.1 23.2 16.9 64 4.4 ESE 17 24 9 13 1017.8 1017.6 0.0
16/10:30pm 24.0 23.0 16.5 63 4.6 SE 17 24 9 13 1017.8 1017.6 0.0
16/10:00pm 24.1 23.3 17.1 65 4.3 ESE 17 24 9 13 1017.7 1017.5 0.0
16/09:30pm 24.1 23.2 16.9 64 4.4 SE 17 24 9 13 1017.7 1017.5 0.0
16/09:00pm 24.2 23.5 17.4 65 4.2 SE 17 26 9 14 1017.4 1017.2 0.0
16/08:30pm 24.2 22.7 17.7 67 4.1 SE 22 30 12 16 1017.2 1017.0 0.0
16/08:00pm 24.3 23.3 18.0 68 4.0 SE 20 30 11 16 1017.0 1016.8 0.0
16/07:30pm 24.3 22.4 16.8 63 4.6 SE 22 30 12 16 1016.9 1016.7 0.0
16/07:00pm 24.7 23.1 16.4 60 5.1 SE 20 26 11 14 1016.7 1016.5 0.0
16/06:30pm 25.1 22.0 15.7 56 5.7 SE 26 32 14 17 1016.6 1016.4 0.0
16/06:00pm 25.7 22.8 16.0 55 5.9 SE 26 32 14 17 1016.8 1016.6 0.0
16/05:30pm 26.0 23.4 16.8 57 5.7 SE 26 33 14 18 1016.8 1016.6 0.0
16/05:00pm 26.3 23.4 17.1 57 5.7 SE 28 33 15 18 1016.8 1016.6 0.0
16/04:30pm 26.4 23.2 16.3 53 6.2 SSE 28 35 15 19 1016.8 1016.6 0.0
16/04:00pm 26.8 24.1 17.6 57 5.8 SSE 28 33 15 18 1016.9 1016.7 0.0
16/03:30pm 26.7 24.1 16.9 55 6.1 SSE 26 37 14 20 1017.1 1016.9 0.0
16/03:00pm 27.0 24.7 17.5 56 6.0 SSE 26 35 14 19 1017.4 1017.2 0.0
16/02:30pm 27.6 25.9 18.0 55 6.1 SSE 24 35 13 19 1017.9 1017.7 0.0
16/02:00pm 26.8 24.0 17.3 56 5.9 SSE 28 39 15 21 1018.3 1018.1 0.0
16/01:30pm 26.5 23.5 17.8 58 5.5 SSE 30 41 16 22 1018.6 1018.4 0.0
16/01:00pm 26.9 24.3 17.7 57 5.8 SSE 28 39 15 21 1018.9 1018.7 0.0
16/12:30pm 27.2 25.0 16.8 53 6.5 SSE 24 37 13 20 1019.2 1019.0 0.0
16/12:00pm 27.2 25.7 17.7 56 6.0 S 22 35 12 19 1019.5 1019.3 0.0
16/11:30am 25.9 24.5 17.0 58 5.5 S 20 28 11 15 1019.8 1019.6 0.0
16/11:00am 27.4 25.9 17.8 55 6.1 SSE 22 32 12 17 1019.8 1019.6 0.0
16/10:30am 26.3 23.9 16.5 54 6.1 SSE 24 32 13 17 1019.8 1019.6 0.0
16/10:00am 25.5 23.3 16.9 59 5.3 SSE 24 32 13 17 1019.8 1019.6 0.0
16/09:30am 24.4 23.5 18.1 68 4.0 SSE 20 32 11 17 1019.8 1019.6 0.0
16/09:00am 23.9 22.7 17.6 68 3.9 SSE 20 32 11 17 1019.6 1019.4 0.0
16/08:30am 23.5 23.6 17.5 69 3.7 S 13 17 7 9 1019.4 1019.2 0.0
16/08:00am 22.9 23.1 16.7 68 3.8 SSW 11 20 6 11 1019.4 1019.2 0.0
16/07:30am 22.2 22.0 16.7 71 3.4 SSW 13 17 7 9 1019.2 1019.0 0.0
16/07:00am 21.5 21.9 17.3 77 2.6 SW 11 15 6 8 1018.9 1018.7 0.0
16/06:30am 23.7 22.5 16.0 62 4.7 S 17 24 9 13 1018.5 1018.3 0.0
16/06:00am 23.5 21.8 15.8 62 4.6 S 19 28 10 15 1018.3 1018.1 0.0
16/05:30am 23.5 21.9 16.1 63 4.5 S 19 28 10 15 1018.1 1017.9 0.0
16/05:00am 23.4 21.9 16.2 64 4.4 SSE 19 28 10 15 1018.1 1017.9 0.0
16/04:30am 23.3 20.6 15.6 62 4.6 SSE 24 32 13 17 1018.2 1018.0 0.0
16/04:00am 23.2 20.8 15.3 61 4.7 SSE 22 30 12 16 1018.5 1018.3 0.0
16/03:30am 23.3 20.1 16.4 65 4.2 SSE 28 35 15 19 1018.8 1018.6 0.0
16/03:00am 23.4 20.7 16.7 66 4.1 SSE 26 33 14 18 1019.1 1018.9 0.0
16/02:30am 23.1 22.0 17.8 72 3.3 SSE 20 28 11 15 1019.2 1019.0 0.0
16/02:00am 23.2 22.4 18.5 75 3.0 SSE 20 32 11 17 1019.6 1019.4 0.0
16/01:30am 23.0 21.2 17.9 73 3.2 SSE 24 33 13 18 1019.9 1019.7 0.0
16/01:00am 21.9 23.0 18.9 83 1.9 SSW 11 15 6 8 1020.3 1020.1 0.0
16/12:30am 23.8 22.5 17.3 67 4.0 SSE 20 30 11 16 1020.6 1020.4 0.0
16/12:00am 24.2 21.4 15.4 58 5.3 SSE 24 32 13 17 1020.7 1020.5 0.0
 
Date/Time
EDT
Temp
°C
App
Temp
°C
Dew
Point
°C
Rel
Hum
%
Delta-T
°C
Wind Press
QNH
hPa
Press
MSL
hPa
Rain since
9am
mm
Dir  Spd
km/h
Gust
km/h
Spd
kts
Gust
kts
15/11:30pm 24.0 21.1 16.0 61 4.9 SE 26 32 14 17 1020.9 1020.7 0.0
15/11:00pm 24.0 20.9 16.5 63 4.6 SE 28 33 15 18 1021.0 1020.8 0.0
15/10:30pm 24.0 20.5 15.5 59 5.1 SE 28 35 15 19 1021.3 1021.1 0.0
15/10:00pm 23.7 22.2 17.7 69 3.7 SSE 22 35 12 19 1021.4 1021.2 0.0
15/09:30pm 23.7 21.3 16.5 64 4.4 SSE 24 33 13 18 1021.2 1021.0 0.0
15/09:00pm 24.1 21.7 15.3 58 5.3 SSE 22 37 12 20 1021.0 1020.8 0.0
15/08:30pm 23.9 21.0 15.1 58 5.3 SSE 24 32 13 17 1020.7 1020.5 0.0
15/08:00pm 23.9 20.9 14.9 57 5.4 SSE 24 33 13 18 1020.5 1020.3 0.0
15/07:30pm 23.9 21.1 15.4 59 5.1 S 24 35 13 19 1020.3 1020.1 0.0
15/07:00pm 24.2 20.5 15.1 56 5.4 SSE 28 41 15 22 1020.0 1019.8 0.0
15/06:30pm 24.4 20.3 15.9 59 5.2 SSE 32 44 17 24 1019.7 1019.5 0.0
15/06:00pm 24.6 20.6 16.3 60 5.1 SSE 32 41 17 22 1019.4 1019.2 0.0
15/05:30pm 25.0 21.0 16.2 58 5.4 SSE 32 44 17 24 1019.4 1019.2 0.0

Other formats

Comma delimited format used in spreadsheet applications
http://www.bom.gov.au/fwo/IDN60801/IDN60801.94589.axf

JavaScript Object Notation format (JSON) in row-major order
http://www.bom.gov.au/fwo/IDN60801/IDN60801.94589.json

Data quality

Most of these data are generated automatically and are frequently updated. Quality checks on data are not normally performed. It is possible for incorrect values to appear. Refer to information at About Latest Weather Observations and please check the disclaimer before using these data.